sensor_id;sensor_type;location;lat;lon;timestamp;P1;durP1;ratioP1;P2;durP2;ratioP2
2021;SDS011;1015;49.756;6.994;2023-12-20T00:01:57;1.00;;;0.80;;
2021;SDS011;1015;49.756;6.994;2023-12-20T00:04:25;1.27;;;0.90;;
2021;SDS011;1015;49.756;6.994;2023-12-20T00:06:52;1.00;;;0.90;;
2021;SDS011;1015;49.756;6.994;2023-12-20T00:09:19;0.70;;;0.70;;
2021;SDS011;1015;49.756;6.994;2023-12-20T00:11:46;1.30;;;1.07;;
2021;SDS011;1015;49.756;6.994;2023-12-20T00:14:13;1.43;;;1.00;;
2021;SDS011;1015;49.756;6.994;2023-12-20T00:16:40;1.07;;;1.07;;
2021;SDS011;1015;49.756;6.994;2023-12-20T00:19:07;0.80;;;0.80;;
2021;SDS011;1015;49.756;6.994;2023-12-20T00:21:36;0.90;;;0.90;;
2021;SDS011;1015;49.756;6.994;2023-12-20T00:24:03;0.80;;;0.80;;
2021;SDS011;1015;49.756;6.994;2023-12-20T00:26:30;1.63;;;1.00;;
2021;SDS011;1015;49.756;6.994;2023-12-20T00:28:57;1.00;;;0.90;;
2021;SDS011;1015;49.756;6.994;2023-12-20T00:31:24;1.30;;;1.07;;
2021;SDS011;1015;49.756;6.994;2023-12-20T00:33:51;1.10;;;1.00;;
2021;SDS011;1015;49.756;6.994;2023-12-20T00:36:19;0.97;;;0.97;;
2021;SDS011;1015;49.756;6.994;2023-12-20T00:38:48;1.03;;;0.83;;
2021;SDS011;1015;49.756;6.994;2023-12-20T00:41:16;1.13;;;1.03;;
2021;SDS011;1015;49.756;6.994;2023-12-20T00:43:43;1.07;;;1.00;;
2021;SDS011;1015;49.756;6.994;2023-12-20T00:46:10;0.90;;;0.90;;
2021;SDS011;1015;49.756;6.994;2023-12-20T00:48:37;1.40;;;1.30;;
2021;SDS011;1015;49.756;6.994;2023-12-20T00:51:07;1.60;;;1.50;;
2021;SDS011;1015;49.756;6.994;2023-12-20T00:53:34;1.60;;;1.50;;
2021;SDS011;1015;49.756;6.994;2023-12-20T00:56:02;1.50;;;1.40;;
2021;SDS011;1015;49.756;6.994;2023-12-20T00:58:30;1.90;;;1.70;;
2021;SDS011;1015;49.756;6.994;2023-12-20T01:00:57;1.97;;;1.60;;
2021;SDS011;1015;49.756;6.994;2023-12-20T01:03:24;1.60;;;1.50;;
2021;SDS011;1015;49.756;6.994;2023-12-20T01:05:51;1.77;;;1.67;;
2021;SDS011;1015;49.756;6.994;2023-12-20T01:08:18;1.67;;;1.37;;
2021;SDS011;1015;49.756;6.994;2023-12-20T01:10:45;1.80;;;1.60;;
2021;SDS011;1015;49.756;6.994;2023-12-20T01:13:14;1.40;;;1.30;;
2021;SDS011;1015;49.756;6.994;2023-12-20T01:15:41;2.27;;;1.70;;
2021;SDS011;1015;49.756;6.994;2023-12-20T01:18:08;1.80;;;1.70;;
2021;SDS011;1015;49.756;6.994;2023-12-20T01:20:35;1.60;;;1.50;;
2021;SDS011;1015;49.756;6.994;2023-12-20T01:23:02;1.90;;;1.80;;
2021;SDS011;1015;49.756;6.994;2023-12-20T01:25:29;2.47;;;2.27;;
2021;SDS011;1015;49.756;6.994;2023-12-20T01:27:56;1.90;;;1.80;;
2021;SDS011;1015;49.756;6.994;2023-12-20T01:30:24;2.47;;;2.27;;
2021;SDS011;1015;49.756;6.994;2023-12-20T01:32:51;2.47;;;2.27;;
2021;SDS011;1015;49.756;6.994;2023-12-20T01:35:19;2.70;;;2.50;;
2021;SDS011;1015;49.756;6.994;2023-12-20T01:37:46;2.23;;;2.03;;
2021;SDS011;1015;49.756;6.994;2023-12-20T01:40:13;2.43;;;2.23;;
2021;SDS011;1015;49.756;6.994;2023-12-20T01:42:40;2.70;;;2.50;;
2021;SDS011;1015;49.756;6.994;2023-12-20T01:45:08;2.37;;;2.17;;
2021;SDS011;1015;49.756;6.994;2023-12-20T01:47:37;2.50;;;2.30;;
2021;SDS011;1015;49.756;6.994;2023-12-20T01:50:04;3.40;;;2.50;;
2021;SDS011;1015;49.756;6.994;2023-12-20T01:52:33;3.13;;;2.83;;
2021;SDS011;1015;49.756;6.994;2023-12-20T01:55:01;3.43;;;2.67;;
2021;SDS011;1015;49.756;6.994;2023-12-20T01:57:31;3.03;;;2.83;;
2021;SDS011;1015;49.756;6.994;2023-12-20T01:59:58;3.03;;;2.50;;
2021;SDS011;1015;49.756;6.994;2023-12-20T02:02:25;3.50;;;2.87;;
2021;SDS011;1015;49.756;6.994;2023-12-20T02:04:55;3.70;;;3.20;;
2021;SDS011;1015;49.756;6.994;2023-12-20T02:07:22;3.50;;;3.20;;
2021;SDS011;1015;49.756;6.994;2023-12-20T02:09:50;3.73;;;3.40;;
2021;SDS011;1015;49.756;6.994;2023-12-20T02:12:17;3.03;;;2.73;;
2021;SDS011;1015;49.756;6.994;2023-12-20T02:14:45;2.67;;;2.47;;
2021;SDS011;1015;49.756;6.994;2023-12-20T02:17:12;3.13;;;2.83;;
2021;SDS011;1015;49.756;6.994;2023-12-20T02:19:39;3.20;;;2.70;;
2021;SDS011;1015;49.756;6.994;2023-12-20T02:22:08;3.70;;;3.40;;
2021;SDS011;1015;49.756;6.994;2023-12-20T02:24:35;4.37;;;3.40;;
2021;SDS011;1015;49.756;6.994;2023-12-20T02:27:02;4.40;;;4.00;;
2021;SDS011;1015;49.756;6.994;2023-12-20T02:29:29;5.50;;;3.87;;
2021;SDS011;1015;49.756;6.994;2023-12-20T02:31:57;4.37;;;3.77;;
2021;SDS011;1015;49.756;6.994;2023-12-20T02:34:24;4.97;;;4.10;;
2021;SDS011;1015;49.756;6.994;2023-12-20T02:36:51;4.20;;;3.80;;
2021;SDS011;1015;49.756;6.994;2023-12-20T02:39:20;6.10;;;4.80;;
2021;SDS011;1015;49.756;6.994;2023-12-20T02:41:47;5.50;;;4.30;;
2021;SDS011;1015;49.756;6.994;2023-12-20T02:44:15;4.73;;;4.10;;
2021;SDS011;1015;49.756;6.994;2023-12-20T02:46:42;4.13;;;3.53;;
2021;SDS011;1015;49.756;6.994;2023-12-20T02:49:09;5.03;;;4.27;;
2021;SDS011;1015;49.756;6.994;2023-12-20T02:51:36;4.67;;;4.20;;
2021;SDS011;1015;49.756;6.994;2023-12-20T02:54:04;5.63;;;4.20;;
2021;SDS011;1015;49.756;6.994;2023-12-20T02:56:32;5.43;;;4.50;;
2021;SDS011;1015;49.756;6.994;2023-12-20T02:58:59;6.23;;;4.73;;
2021;SDS011;1015;49.756;6.994;2023-12-20T03:01:26;6.10;;;4.40;;
2021;SDS011;1015;49.756;6.994;2023-12-20T03:03:54;4.70;;;4.10;;
2021;SDS011;1015;49.756;6.994;2023-12-20T03:06:21;6.37;;;4.67;;
2021;SDS011;1015;49.756;6.994;2023-12-20T03:08:48;5.83;;;4.53;;
2021;SDS011;1015;49.756;6.994;2023-12-20T03:11:15;6.60;;;5.10;;
2021;SDS011;1015;49.756;6.994;2023-12-20T03:13:43;7.57;;;5.00;;
2021;SDS011;1015;49.756;6.994;2023-12-20T03:16:10;7.00;;;5.33;;
2021;SDS011;1015;49.756;6.994;2023-12-20T03:18:37;5.80;;;4.70;;
2021;SDS011;1015;49.756;6.994;2023-12-20T03:21:05;6.67;;;4.60;;
2021;SDS011;1015;49.756;6.994;2023-12-20T03:23:32;6.17;;;4.47;;
2021;SDS011;1015;49.756;6.994;2023-12-20T03:25:59;5.80;;;4.97;;
2021;SDS011;1015;49.756;6.994;2023-12-20T03:28:26;6.00;;;4.50;;
2021;SDS011;1015;49.756;6.994;2023-12-20T03:30:55;6.10;;;4.83;;
2021;SDS011;1015;49.756;6.994;2023-12-20T03:33:22;6.33;;;5.00;;
2021;SDS011;1015;49.756;6.994;2023-12-20T03:35:49;6.20;;;5.07;;
2021;SDS011;1015;49.756;6.994;2023-12-20T03:38:16;8.97;;;5.83;;
2021;SDS011;1015;49.756;6.994;2023-12-20T03:40:43;8.87;;;6.27;;
2021;SDS011;1015;49.756;6.994;2023-12-20T03:43:10;10.20;;;6.77;;
2021;SDS011;1015;49.756;6.994;2023-12-20T03:45:37;9.37;;;7.00;;
2021;SDS011;1015;49.756;6.994;2023-12-20T03:48:06;10.10;;;7.23;;
2021;SDS011;1015;49.756;6.994;2023-12-20T03:50:33;10.90;;;7.30;;
2021;SDS011;1015;49.756;6.994;2023-12-20T03:53:00;10.37;;;7.07;;
2021;SDS011;1015;49.756;6.994;2023-12-20T03:55:28;11.03;;;7.93;;
2021;SDS011;1015;49.756;6.994;2023-12-20T03:57:56;10.47;;;7.97;;
2021;SDS011;1015;49.756;6.994;2023-12-20T04:00:23;10.40;;;7.53;;
2021;SDS011;1015;49.756;6.994;2023-12-20T04:02:50;13.03;;;8.10;;
2021;SDS011;1015;49.756;6.994;2023-12-20T04:05:19;14.07;;;7.67;;
2021;SDS011;1015;49.756;6.994;2023-12-20T04:07:46;12.30;;;8.10;;
2021;SDS011;1015;49.756;6.994;2023-12-20T04:10:13;10.90;;;7.93;;
2021;SDS011;1015;49.756;6.994;2023-12-20T04:12:40;16.67;;;7.73;;
2021;SDS011;1015;49.756;6.994;2023-12-20T04:15:07;9.03;;;6.60;;
2021;SDS011;1015;49.756;6.994;2023-12-20T04:17:36;12.63;;;5.90;;
2021;SDS011;1015;49.756;6.994;2023-12-20T04:20:04;8.60;;;5.70;;
2021;SDS011;1015;49.756;6.994;2023-12-20T04:22:32;10.67;;;4.83;;
2021;SDS011;1015;49.756;6.994;2023-12-20T04:25:00;7.17;;;4.87;;
2021;SDS011;1015;49.756;6.994;2023-12-20T04:27:27;6.30;;;4.40;;
2021;SDS011;1015;49.756;6.994;2023-12-20T04:29:54;7.80;;;3.80;;
2021;SDS011;1015;49.756;6.994;2023-12-20T04:32:21;7.30;;;3.60;;
2021;SDS011;1015;49.756;6.994;2023-12-20T04:34:48;7.30;;;3.73;;
2021;SDS011;1015;49.756;6.994;2023-12-20T04:37:15;5.90;;;3.40;;
2021;SDS011;1015;49.756;6.994;2023-12-20T04:39:43;5.90;;;3.10;;
2021;SDS011;1015;49.756;6.994;2023-12-20T04:42:10;6.40;;;3.10;;
2021;SDS011;1015;49.756;6.994;2023-12-20T04:44:37;5.37;;;3.20;;
2021;SDS011;1015;49.756;6.994;2023-12-20T04:47:04;4.70;;;3.40;;
2021;SDS011;1015;49.756;6.994;2023-12-20T04:49:31;5.60;;;2.80;;
2021;SDS011;1015;49.756;6.994;2023-12-20T04:51:58;5.47;;;3.03;;
2021;SDS011;1015;49.756;6.994;2023-12-20T04:54:25;5.30;;;3.37;;
2021;SDS011;1015;49.756;6.994;2023-12-20T04:56:54;6.00;;;3.03;;
2021;SDS011;1015;49.756;6.994;2023-12-20T04:59:21;6.60;;;4.23;;
2021;SDS011;1015;49.756;6.994;2023-12-20T05:01:48;5.40;;;3.80;;
2021;SDS011;1015;49.756;6.994;2023-12-20T05:04:15;4.60;;;3.20;;
2021;SDS011;1015;49.756;6.994;2023-12-20T05:06:42;4.67;;;2.87;;
2021;SDS011;1015;49.756;6.994;2023-12-20T05:09:09;6.13;;;3.23;;
2021;SDS011;1015;49.756;6.994;2023-12-20T05:11:36;8.10;;;3.53;;
2021;SDS011;1015;49.756;6.994;2023-12-20T05:14:05;4.23;;;3.20;;
2021;SDS011;1015;49.756;6.994;2023-12-20T05:16:32;5.97;;;3.20;;
2021;SDS011;1015;49.756;6.994;2023-12-20T05:19:00;4.43;;;3.10;;
2021;SDS011;1015;49.756;6.994;2023-12-20T05:21:31;8.57;;;4.23;;
2021;SDS011;1015;49.756;6.994;2023-12-20T05:23:58;10.10;;;3.40;;
2021;SDS011;1015;49.756;6.994;2023-12-20T05:26:25;7.53;;;3.77;;
2021;SDS011;1015;49.756;6.994;2023-12-20T05:28:54;5.20;;;3.30;;
2021;SDS011;1015;49.756;6.994;2023-12-20T05:31:23;7.93;;;3.90;;
2021;SDS011;1015;49.756;6.994;2023-12-20T05:33:50;6.00;;;4.30;;
2021;SDS011;1015;49.756;6.994;2023-12-20T05:36:17;6.50;;;3.70;;
2021;SDS011;1015;49.756;6.994;2023-12-20T05:38:44;7.57;;;3.70;;
2021;SDS011;1015;49.756;6.994;2023-12-20T05:41:14;9.53;;;3.90;;
2021;SDS011;1015;49.756;6.994;2023-12-20T05:43:41;8.33;;;4.70;;
2021;SDS011;1015;49.756;6.994;2023-12-20T05:46:09;8.90;;;3.97;;
2021;SDS011;1015;49.756;6.994;2023-12-20T05:48:38;8.43;;;4.20;;
2021;SDS011;1015;49.756;6.994;2023-12-20T05:51:05;10.97;;;3.80;;
2021;SDS011;1015;49.756;6.994;2023-12-20T05:53:33;8.77;;;3.90;;
2021;SDS011;1015;49.756;6.994;2023-12-20T05:56:00;6.53;;;4.30;;
2021;SDS011;1015;49.756;6.994;2023-12-20T06:01:30;10.97;;;3.73;;
2021;SDS011;1015;49.756;6.994;2023-12-20T06:03:58;4.70;;;3.47;;
2021;SDS011;1015;49.756;6.994;2023-12-20T06:06:25;5.20;;;3.07;;
2021;SDS011;1015;49.756;6.994;2023-12-20T06:08:53;5.50;;;3.23;;
2021;SDS011;1015;49.756;6.994;2023-12-20T06:11:20;6.80;;;3.83;;
2021;SDS011;1015;49.756;6.994;2023-12-20T06:13:47;5.80;;;3.60;;
2021;SDS011;1015;49.756;6.994;2023-12-20T06:16:17;5.47;;;3.40;;
2021;SDS011;1015;49.756;6.994;2023-12-20T06:18:45;14.77;;;4.10;;
2021;SDS011;1015;49.756;6.994;2023-12-20T06:21:13;9.87;;;3.80;;
2021;SDS011;1015;49.756;6.994;2023-12-20T06:23:40;7.53;;;3.40;;
2021;SDS011;1015;49.756;6.994;2023-12-20T06:29:11;7.23;;;3.20;;
2021;SDS011;1015;49.756;6.994;2023-12-20T06:31:38;5.10;;;2.90;;
2021;SDS011;1015;49.756;6.994;2023-12-20T06:34:05;4.90;;;3.20;;
2021;SDS011;1015;49.756;6.994;2023-12-20T06:36:34;5.13;;;3.10;;
2021;SDS011;1015;49.756;6.994;2023-12-20T06:39:01;7.53;;;3.40;;
2021;SDS011;1015;49.756;6.994;2023-12-20T06:41:29;6.73;;;3.23;;
2021;SDS011;1015;49.756;6.994;2023-12-20T06:43:56;6.93;;;2.90;;
2021;SDS011;1015;49.756;6.994;2023-12-20T06:46:27;8.50;;;3.70;;
2021;SDS011;1015;49.756;6.994;2023-12-20T06:48:54;8.10;;;3.60;;
2021;SDS011;1015;49.756;6.994;2023-12-20T06:51:21;7.13;;;3.70;;
2021;SDS011;1015;49.756;6.994;2023-12-20T06:53:51;11.63;;;3.63;;
2021;SDS011;1015;49.756;6.994;2023-12-20T06:56:19;5.37;;;3.67;;
2021;SDS011;1015;49.756;6.994;2023-12-20T06:58:46;10.80;;;4.23;;
2021;SDS011;1015;49.756;6.994;2023-12-20T07:01:13;6.30;;;3.33;;
2021;SDS011;1015;49.756;6.994;2023-12-20T07:03:40;5.30;;;4.20;;
2021;SDS011;1015;49.756;6.994;2023-12-20T07:06:07;12.00;;;4.03;;
2021;SDS011;1015;49.756;6.994;2023-12-20T07:08:35;5.07;;;3.90;;
2021;SDS011;1015;49.756;6.994;2023-12-20T07:11:03;7.57;;;3.83;;
2021;SDS011;1015;49.756;6.994;2023-12-20T07:13:30;7.90;;;3.90;;
2021;SDS011;1015;49.756;6.994;2023-12-20T07:15:57;11.37;;;4.47;;
2021;SDS011;1015;49.756;6.994;2023-12-20T07:18:33;11.30;;;4.43;;
2021;SDS011;1015;49.756;6.994;2023-12-20T07:21:00;5.80;;;3.30;;
2021;SDS011;1015;49.756;6.994;2023-12-20T07:23:27;8.60;;;3.87;;
2021;SDS011;1015;49.756;6.994;2023-12-20T07:25:54;8.13;;;3.83;;
2021;SDS011;1015;49.756;6.994;2023-12-20T07:28:23;7.43;;;4.30;;
2021;SDS011;1015;49.756;6.994;2023-12-20T07:30:50;6.30;;;3.60;;
2021;SDS011;1015;49.756;6.994;2023-12-20T07:33:17;9.53;;;4.23;;
2021;SDS011;1015;49.756;6.994;2023-12-20T07:35:44;5.43;;;3.90;;
2021;SDS011;1015;49.756;6.994;2023-12-20T07:38:11;6.97;;;4.20;;
2021;SDS011;1015;49.756;6.994;2023-12-20T07:40:38;10.23;;;4.23;;
2021;SDS011;1015;49.756;6.994;2023-12-20T07:43:05;8.90;;;4.87;;
2021;SDS011;1015;49.756;6.994;2023-12-20T07:45:34;9.83;;;4.20;;
2021;SDS011;1015;49.756;6.994;2023-12-20T07:48:01;7.50;;;4.30;;
2021;SDS011;1015;49.756;6.994;2023-12-20T07:50:32;11.93;;;4.33;;
2021;SDS011;1015;49.756;6.994;2023-12-20T07:52:59;9.87;;;4.43;;
2021;SDS011;1015;49.756;6.994;2023-12-20T07:55:26;10.23;;;3.73;;
2021;SDS011;1015;49.756;6.994;2023-12-20T07:57:55;10.07;;;5.27;;
2021;SDS011;1015;49.756;6.994;2023-12-20T08:00:22;7.07;;;3.93;;
2021;SDS011;1015;49.756;6.994;2023-12-20T08:02:50;8.87;;;4.63;;
2021;SDS011;1015;49.756;6.994;2023-12-20T08:05:17;10.90;;;4.30;;
2021;SDS011;1015;49.756;6.994;2023-12-20T08:07:45;11.93;;;4.47;;
2021;SDS011;1015;49.756;6.994;2023-12-20T08:10:12;11.97;;;4.67;;
2021;SDS011;1015;49.756;6.994;2023-12-20T08:12:39;8.20;;;4.50;;
2021;SDS011;1015;49.756;6.994;2023-12-20T08:15:06;10.30;;;4.50;;
2021;SDS011;1015;49.756;6.994;2023-12-20T08:17:33;11.63;;;4.90;;
2021;SDS011;1015;49.756;6.994;2023-12-20T08:20:02;5.80;;;3.53;;
2021;SDS011;1015;49.756;6.994;2023-12-20T08:22:29;6.60;;;3.57;;
2021;SDS011;1015;49.756;6.994;2023-12-20T08:24:56;6.90;;;3.70;;
2021;SDS011;1015;49.756;6.994;2023-12-20T08:27:23;7.33;;;3.80;;
2021;SDS011;1015;49.756;6.994;2023-12-20T08:29:51;11.53;;;4.13;;
2021;SDS011;1015;49.756;6.994;2023-12-20T08:32:18;9.30;;;3.90;;
2021;SDS011;1015;49.756;6.994;2023-12-20T08:34:45;9.20;;;3.30;;
2021;SDS011;1015;49.756;6.994;2023-12-20T08:37:13;12.60;;;3.37;;
2021;SDS011;1015;49.756;6.994;2023-12-20T08:39:40;7.40;;;4.17;;
2021;SDS011;1015;49.756;6.994;2023-12-20T08:42:09;8.23;;;3.67;;
2021;SDS011;1015;49.756;6.994;2023-12-20T08:44:36;13.30;;;4.37;;
2021;SDS011;1015;49.756;6.994;2023-12-20T08:47:03;6.30;;;4.00;;
2021;SDS011;1015;49.756;6.994;2023-12-20T08:49:30;12.77;;;4.77;;
2021;SDS011;1015;49.756;6.994;2023-12-20T08:51:57;10.60;;;5.00;;
2021;SDS011;1015;49.756;6.994;2023-12-20T08:54:25;10.37;;;4.57;;
2021;SDS011;1015;49.756;6.994;2023-12-20T08:56:52;9.37;;;4.70;;
2021;SDS011;1015;49.756;6.994;2023-12-20T08:59:20;10.90;;;4.97;;
2021;SDS011;1015;49.756;6.994;2023-12-20T09:01:47;7.60;;;4.57;;
2021;SDS011;1015;49.756;6.994;2023-12-20T09:04:19;8.60;;;4.40;;
2021;SDS011;1015;49.756;6.994;2023-12-20T09:06:46;14.50;;;5.60;;
2021;SDS011;1015;49.756;6.994;2023-12-20T09:09:13;10.70;;;5.60;;
2021;SDS011;1015;49.756;6.994;2023-12-20T09:11:41;8.57;;;5.67;;
2021;SDS011;1015;49.756;6.994;2023-12-20T09:14:11;9.90;;;5.73;;
2021;SDS011;1015;49.756;6.994;2023-12-20T09:16:38;11.83;;;6.37;;
2021;SDS011;1015;49.756;6.994;2023-12-20T09:19:05;14.20;;;6.60;;
2021;SDS011;1015;49.756;6.994;2023-12-20T09:21:32;15.53;;;6.43;;
2021;SDS011;1015;49.756;6.994;2023-12-20T09:23:59;13.00;;;5.80;;
2021;SDS011;1015;49.756;6.994;2023-12-20T09:26:26;12.53;;;6.20;;
2021;SDS011;1015;49.756;6.994;2023-12-20T09:28:54;16.20;;;6.30;;
2021;SDS011;1015;49.756;6.994;2023-12-20T09:31:21;10.33;;;6.33;;
2021;SDS011;1015;49.756;6.994;2023-12-20T09:33:48;14.40;;;6.93;;
2021;SDS011;1015;49.756;6.994;2023-12-20T09:36:15;16.80;;;7.47;;
2021;SDS011;1015;49.756;6.994;2023-12-20T09:38:42;12.73;;;6.53;;
2021;SDS011;1015;49.756;6.994;2023-12-20T09:41:10;11.07;;;5.47;;
2021;SDS011;1015;49.756;6.994;2023-12-20T09:43:37;8.90;;;5.80;;
2021;SDS011;1015;49.756;6.994;2023-12-20T09:46:06;12.47;;;6.43;;
2021;SDS011;1015;49.756;6.994;2023-12-20T09:48:33;11.70;;;6.10;;
2021;SDS011;1015;49.756;6.994;2023-12-20T09:51:01;12.30;;;6.50;;
2021;SDS011;1015;49.756;6.994;2023-12-20T09:53:28;9.83;;;5.47;;
2021;SDS011;1015;49.756;6.994;2023-12-20T09:55:57;9.50;;;4.93;;
2021;SDS011;1015;49.756;6.994;2023-12-20T09:58:26;9.00;;;6.23;;
2021;SDS011;1015;49.756;6.994;2023-12-20T10:00:53;12.00;;;6.50;;
2021;SDS011;1015;49.756;6.994;2023-12-20T10:03:23;11.57;;;5.67;;
2021;SDS011;1015;49.756;6.994;2023-12-20T10:05:52;16.60;;;5.93;;
2021;SDS011;1015;49.756;6.994;2023-12-20T10:08:20;17.40;;;6.53;;
2021;SDS011;1015;49.756;6.994;2023-12-20T10:10:48;9.93;;;5.47;;
2021;SDS011;1015;49.756;6.994;2023-12-20T10:13:15;9.37;;;5.40;;
2021;SDS011;1015;49.756;6.994;2023-12-20T10:15:42;12.00;;;5.70;;
2021;SDS011;1015;49.756;6.994;2023-12-20T10:18:09;10.93;;;5.07;;
2021;SDS011;1015;49.756;6.994;2023-12-20T10:20:39;11.63;;;5.67;;
2021;SDS011;1015;49.756;6.994;2023-12-20T10:23:06;8.20;;;4.83;;
2021;SDS011;1015;49.756;6.994;2023-12-20T10:25:34;12.00;;;6.10;;
2021;SDS011;1015;49.756;6.994;2023-12-20T10:28:11;10.17;;;5.07;;
2021;SDS011;1015;49.756;6.994;2023-12-20T10:30:38;13.30;;;5.53;;
2021;SDS011;1015;49.756;6.994;2023-12-20T10:33:06;13.60;;;5.60;;
2021;SDS011;1015;49.756;6.994;2023-12-20T10:35:33;14.80;;;5.10;;
2021;SDS011;1015;49.756;6.994;2023-12-20T10:38:03;8.07;;;5.20;;
2021;SDS011;1015;49.756;6.994;2023-12-20T10:40:31;8.13;;;4.40;;
2021;SDS011;1015;49.756;6.994;2023-12-20T10:42:58;8.27;;;5.00;;
2021;SDS011;1015;49.756;6.994;2023-12-20T10:45:26;11.50;;;5.10;;
2021;SDS011;1015;49.756;6.994;2023-12-20T10:47:53;11.60;;;4.80;;
2021;SDS011;1015;49.756;6.994;2023-12-20T10:50:20;8.03;;;4.50;;
2021;SDS011;1015;49.756;6.994;2023-12-20T10:52:47;12.77;;;5.40;;
2021;SDS011;1015;49.756;6.994;2023-12-20T10:55:21;7.03;;;4.70;;
2021;SDS011;1015;49.756;6.994;2023-12-20T10:57:49;14.13;;;4.73;;
2021;SDS011;1015;49.756;6.994;2023-12-20T11:00:17;7.07;;;4.57;;
2021;SDS011;1015;49.756;6.994;2023-12-20T11:02:44;8.43;;;5.13;;
2021;SDS011;1015;49.756;6.994;2023-12-20T11:05:13;7.60;;;4.20;;
2021;SDS011;1015;49.756;6.994;2023-12-20T11:07:45;7.63;;;3.90;;
2021;SDS011;1015;49.756;6.994;2023-12-20T11:10:16;8.53;;;3.53;;
2021;SDS011;1015;49.756;6.994;2023-12-20T11:12:48;10.10;;;4.20;;
2021;SDS011;1015;49.756;6.994;2023-12-20T11:15:18;8.13;;;3.63;;
2021;SDS011;1015;49.756;6.994;2023-12-20T11:17:45;11.23;;;3.40;;
2021;SDS011;1015;49.756;6.994;2023-12-20T11:20:12;8.30;;;3.87;;
2021;SDS011;1015;49.756;6.994;2023-12-20T11:22:39;8.93;;;4.80;;
2021;SDS011;1015;49.756;6.994;2023-12-20T11:25:18;4.93;;;3.57;;
2021;SDS011;1015;49.756;6.994;2023-12-20T11:27:46;6.10;;;3.17;;
2021;SDS011;1015;49.756;6.994;2023-12-20T11:30:41;10.00;;;3.60;;
2021;SDS011;1015;49.756;6.994;2023-12-20T11:33:08;6.20;;;3.13;;
2021;SDS011;1015;49.756;6.994;2023-12-20T11:35:35;8.17;;;3.00;;
2021;SDS011;1015;49.756;6.994;2023-12-20T11:38:04;8.27;;;3.07;;
2021;SDS011;1015;49.756;6.994;2023-12-20T11:40:31;4.53;;;3.00;;
2021;SDS011;1015;49.756;6.994;2023-12-20T11:43:00;6.20;;;2.80;;
2021;SDS011;1015;49.756;6.994;2023-12-20T11:45:27;5.30;;;2.90;;
2021;SDS011;1015;49.756;6.994;2023-12-20T11:47:56;6.93;;;2.70;;
2021;SDS011;1015;49.756;6.994;2023-12-20T11:50:23;4.63;;;2.67;;
2021;SDS011;1015;49.756;6.994;2023-12-20T11:52:51;9.23;;;2.70;;
2021;SDS011;1015;49.756;6.994;2023-12-20T11:55:19;7.83;;;3.23;;
2021;SDS011;1015;49.756;6.994;2023-12-20T11:57:46;5.70;;;3.10;;
2021;SDS011;1015;49.756;6.994;2023-12-20T12:00:13;6.33;;;2.90;;
2021;SDS011;1015;49.756;6.994;2023-12-20T12:02:41;5.67;;;3.07;;
2021;SDS011;1015;49.756;6.994;2023-12-20T12:05:09;7.67;;;2.77;;
2021;SDS011;1015;49.756;6.994;2023-12-20T12:07:36;8.00;;;3.00;;
2021;SDS011;1015;49.756;6.994;2023-12-20T12:10:04;4.90;;;2.83;;
2021;SDS011;1015;49.756;6.994;2023-12-20T12:12:31;4.70;;;2.50;;
2021;SDS011;1015;49.756;6.994;2023-12-20T12:14:58;6.67;;;3.03;;
2021;SDS011;1015;49.756;6.994;2023-12-20T12:17:25;5.60;;;3.10;;
2021;SDS011;1015;49.756;6.994;2023-12-20T12:19:53;12.90;;;3.67;;
2021;SDS011;1015;49.756;6.994;2023-12-20T12:22:29;7.97;;;2.97;;
2021;SDS011;1015;49.756;6.994;2023-12-20T12:24:58;5.27;;;2.70;;
2021;SDS011;1015;49.756;6.994;2023-12-20T12:27:26;8.03;;;3.60;;
2021;SDS011;1015;49.756;6.994;2023-12-20T12:30:00;4.87;;;2.87;;
2021;SDS011;1015;49.756;6.994;2023-12-20T12:32:28;8.03;;;3.60;;
2021;SDS011;1015;49.756;6.994;2023-12-20T12:34:55;6.77;;;3.10;;
2021;SDS011;1015;49.756;6.994;2023-12-20T12:37:22;10.37;;;3.30;;
2021;SDS011;1015;49.756;6.994;2023-12-20T12:39:52;7.10;;;2.97;;
2021;SDS011;1015;49.756;6.994;2023-12-20T12:42:19;8.67;;;3.47;;
2021;SDS011;1015;49.756;6.994;2023-12-20T12:44:50;5.70;;;3.10;;
2021;SDS011;1015;49.756;6.994;2023-12-20T12:47:18;9.00;;;3.17;;
2021;SDS011;1015;49.756;6.994;2023-12-20T12:49:46;6.30;;;3.20;;
2021;SDS011;1015;49.756;6.994;2023-12-20T12:52:13;9.17;;;3.60;;
2021;SDS011;1015;49.756;6.994;2023-12-20T12:54:40;6.57;;;2.97;;
2021;SDS011;1015;49.756;6.994;2023-12-20T12:57:11;8.50;;;3.50;;
2021;SDS011;1015;49.756;6.994;2023-12-20T12:59:38;9.50;;;3.60;;
2021;SDS011;1015;49.756;6.994;2023-12-20T13:02:05;7.30;;;3.23;;
2021;SDS011;1015;49.756;6.994;2023-12-20T13:04:33;13.50;;;3.20;;
2021;SDS011;1015;49.756;6.994;2023-12-20T13:07:00;12.23;;;4.03;;
2021;SDS011;1015;49.756;6.994;2023-12-20T13:09:27;4.23;;;2.60;;
2021;SDS011;1015;49.756;6.994;2023-12-20T13:11:54;8.20;;;3.60;;
2021;SDS011;1015;49.756;6.994;2023-12-20T13:14:23;6.27;;;3.10;;
2021;SDS011;1015;49.756;6.994;2023-12-20T13:16:50;5.90;;;3.87;;
2021;SDS011;1015;49.756;6.994;2023-12-20T13:19:17;8.03;;;3.20;;
2021;SDS011;1015;49.756;6.994;2023-12-20T13:21:44;7.40;;;3.80;;
2021;SDS011;1015;49.756;6.994;2023-12-20T13:24:11;9.80;;;3.23;;
2021;SDS011;1015;49.756;6.994;2023-12-20T13:26:38;6.23;;;2.97;;
2021;SDS011;1015;49.756;6.994;2023-12-20T13:29:05;5.30;;;3.00;;
2021;SDS011;1015;49.756;6.994;2023-12-20T13:31:33;5.67;;;3.27;;
2021;SDS011;1015;49.756;6.994;2023-12-20T13:34:01;8.37;;;3.20;;
2021;SDS011;1015;49.756;6.994;2023-12-20T13:36:28;5.60;;;3.00;;
2021;SDS011;1015;49.756;6.994;2023-12-20T13:38:56;6.93;;;3.10;;
2021;SDS011;1015;49.756;6.994;2023-12-20T13:41:23;6.93;;;3.70;;
2021;SDS011;1015;49.756;6.994;2023-12-20T13:43:50;4.77;;;2.50;;
2021;SDS011;1015;49.756;6.994;2023-12-20T13:46:17;7.53;;;3.53;;
2021;SDS011;1015;49.756;6.994;2023-12-20T13:48:46;5.73;;;2.37;;
2021;SDS011;1015;49.756;6.994;2023-12-20T13:51:13;6.40;;;3.67;;
2021;SDS011;1015;49.756;6.994;2023-12-20T13:53:40;6.80;;;3.80;;
2021;SDS011;1015;49.756;6.994;2023-12-20T13:56:07;6.00;;;3.40;;
2021;SDS011;1015;49.756;6.994;2023-12-20T13:58:34;6.50;;;2.90;;
2021;SDS011;1015;49.756;6.994;2023-12-20T14:01:02;6.73;;;3.43;;
2021;SDS011;1015;49.756;6.994;2023-12-20T14:03:29;6.20;;;3.63;;
2021;SDS011;1015;49.756;6.994;2023-12-20T14:05:58;9.30;;;3.00;;
2021;SDS011;1015;49.756;6.994;2023-12-20T14:08:25;7.23;;;3.93;;
2021;SDS011;1015;49.756;6.994;2023-12-20T14:10:53;5.33;;;4.00;;
2021;SDS011;1015;49.756;6.994;2023-12-20T14:13:20;6.10;;;3.07;;
2021;SDS011;1015;49.756;6.994;2023-12-20T14:15:47;6.07;;;3.40;;
2021;SDS011;1015;49.756;6.994;2023-12-20T14:18:14;6.80;;;3.10;;
2021;SDS011;1015;49.756;6.994;2023-12-20T14:20:42;4.70;;;2.63;;
2021;SDS011;1015;49.756;6.994;2023-12-20T14:23:11;7.87;;;3.00;;
2021;SDS011;1015;49.756;6.994;2023-12-20T14:25:39;4.47;;;2.30;;
2021;SDS011;1015;49.756;6.994;2023-12-20T14:28:06;8.63;;;3.70;;
2021;SDS011;1015;49.756;6.994;2023-12-20T14:30:35;9.50;;;4.10;;
2021;SDS011;1015;49.756;6.994;2023-12-20T14:33:03;8.83;;;3.27;;
2021;SDS011;1015;49.756;6.994;2023-12-20T14:35:30;4.47;;;3.17;;
2021;SDS011;1015;49.756;6.994;2023-12-20T14:37:57;6.63;;;3.30;;
2021;SDS011;1015;49.756;6.994;2023-12-20T14:40:26;6.13;;;2.90;;
2021;SDS011;1015;49.756;6.994;2023-12-20T14:42:53;8.00;;;3.30;;
2021;SDS011;1015;49.756;6.994;2023-12-20T14:45:20;4.03;;;2.77;;
2021;SDS011;1015;49.756;6.994;2023-12-20T14:47:47;8.37;;;3.20;;
2021;SDS011;1015;49.756;6.994;2023-12-20T14:50:14;7.57;;;3.20;;
2021;SDS011;1015;49.756;6.994;2023-12-20T14:52:43;5.60;;;3.03;;
2021;SDS011;1015;49.756;6.994;2023-12-20T14:55:11;8.10;;;3.53;;
2021;SDS011;1015;49.756;6.994;2023-12-20T14:57:40;9.23;;;2.80;;
2021;SDS011;1015;49.756;6.994;2023-12-20T15:00:07;7.60;;;3.10;;
2021;SDS011;1015;49.756;6.994;2023-12-20T15:02:34;7.47;;;3.63;;
2021;SDS011;1015;49.756;6.994;2023-12-20T15:05:01;6.97;;;3.50;;
2021;SDS011;1015;49.756;6.994;2023-12-20T15:07:28;6.53;;;3.47;;
2021;SDS011;1015;49.756;6.994;2023-12-20T15:09:55;6.17;;;3.57;;
2021;SDS011;1015;49.756;6.994;2023-12-20T15:12:22;5.23;;;3.30;;
2021;SDS011;1015;49.756;6.994;2023-12-20T15:14:51;10.90;;;3.97;;
2021;SDS011;1015;49.756;6.994;2023-12-20T15:17:18;6.07;;;3.13;;
2021;SDS011;1015;49.756;6.994;2023-12-20T15:19:45;6.47;;;3.60;;
2021;SDS011;1015;49.756;6.994;2023-12-20T15:22:12;3.90;;;3.30;;